sensor_id;sensor_type;location;lat;lon;timestamp;temperature;humidity
25436;DHT22;13363;52.772;-3.890;2022-09-21T00:01:23;10.90;99.90
25436;DHT22;13363;52.772;-3.890;2022-09-21T00:03:55;10.80;99.90
25436;DHT22;13363;52.772;-3.890;2022-09-21T00:06:23;10.80;99.90
25436;DHT22;13363;52.772;-3.890;2022-09-21T00:08:49;10.80;99.90
25436;DHT22;13363;52.772;-3.890;2022-09-21T00:11:18;10.70;99.90
25436;DHT22;13363;52.772;-3.890;2022-09-21T00:13:45;10.80;99.90
25436;DHT22;13363;52.772;-3.890;2022-09-21T00:16:12;10.90;99.90
25436;DHT22;13363;52.772;-3.890;2022-09-21T00:18:38;10.80;99.90
25436;DHT22;13363;52.772;-3.890;2022-09-21T00:21:08;10.80;99.90
25436;DHT22;13363;52.772;-3.890;2022-09-21T00:23:36;10.80;99.90
25436;DHT22;13363;52.772;-3.890;2022-09-21T00:26:10;10.80;99.90
25436;DHT22;13363;52.772;-3.890;2022-09-21T00:28:36;10.80;99.90
25436;DHT22;13363;52.772;-3.890;2022-09-21T00:31:09;10.80;99.90
25436;DHT22;13363;52.772;-3.890;2022-09-21T00:33:42;10.70;99.90
25436;DHT22;13363;52.772;-3.890;2022-09-21T00:36:11;10.70;99.90
25436;DHT22;13363;52.772;-3.890;2022-09-21T00:38:37;10.60;99.90
25436;DHT22;13363;52.772;-3.890;2022-09-21T00:41:05;10.70;99.90
25436;DHT22;13363;52.772;-3.890;2022-09-21T00:43:36;10.70;99.90
25436;DHT22;13363;52.772;-3.890;2022-09-21T00:49:03;10.60;99.90
25436;DHT22;13363;52.772;-3.890;2022-09-21T00:51:29;10.60;99.90
25436;DHT22;13363;52.772;-3.890;2022-09-21T00:54:00;10.60;99.90
25436;DHT22;13363;52.772;-3.890;2022-09-21T00:56:27;10.60;99.90
25436;DHT22;13363;52.772;-3.890;2022-09-21T00:58:54;10.70;99.90
25436;DHT22;13363;52.772;-3.890;2022-09-21T01:01:20;10.60;99.90
25436;DHT22;13363;52.772;-3.890;2022-09-21T01:03:47;10.60;99.90
25436;DHT22;13363;52.772;-3.890;2022-09-21T01:06:17;10.60;99.90
25436;DHT22;13363;52.772;-3.890;2022-09-21T01:08:44;10.70;99.90
25436;DHT22;13363;52.772;-3.890;2022-09-21T01:23:03;10.70;99.90
25436;DHT22;13363;52.772;-3.890;2022-09-21T01:31:27;10.70;99.90
25436;DHT22;13363;52.772;-3.890;2022-09-21T01:33:57;10.70;99.90
25436;DHT22;13363;52.772;-3.890;2022-09-21T01:36:28;10.80;99.90
25436;DHT22;13363;52.772;-3.890;2022-09-21T01:39:02;10.70;99.90
25436;DHT22;13363;52.772;-3.890;2022-09-21T01:41:31;10.70;99.90
25436;DHT22;13363;52.772;-3.890;2022-09-21T01:44:04;10.80;99.90
25436;DHT22;13363;52.772;-3.890;2022-09-21T01:46:33;10.80;99.90
25436;DHT22;13363;52.772;-3.890;2022-09-21T01:49:05;10.80;99.90
25436;DHT22;13363;52.772;-3.890;2022-09-21T01:51:34;10.80;99.90
25436;DHT22;13363;52.772;-3.890;2022-09-21T01:54:08;10.70;99.90
25436;DHT22;13363;52.772;-3.890;2022-09-21T01:57:00;10.80;99.90
25436;DHT22;13363;52.772;-3.890;2022-09-21T01:59:59;10.90;99.90
25436;DHT22;13363;52.772;-3.890;2022-09-21T02:05:20;10.70;99.90
25436;DHT22;13363;52.772;-3.890;2022-09-21T02:07:47;10.70;99.90
25436;DHT22;13363;52.772;-3.890;2022-09-21T02:10:30;10.70;99.90
25436;DHT22;13363;52.772;-3.890;2022-09-21T02:13:00;10.70;99.90
25436;DHT22;13363;52.772;-3.890;2022-09-21T02:18:34;10.60;99.90
25436;DHT22;13363;52.772;-3.890;2022-09-21T02:21:10;10.70;99.90
25436;DHT22;13363;52.772;-3.890;2022-09-21T02:24:10;10.70;99.90
25436;DHT22;13363;52.772;-3.890;2022-09-21T02:26:49;10.80;99.90
25436;DHT22;13363;52.772;-3.890;2022-09-21T02:29:39;10.80;99.90
25436;DHT22;13363;52.772;-3.890;2022-09-21T02:34:47;10.70;99.90
25436;DHT22;13363;52.772;-3.890;2022-09-21T02:40:12;10.70;99.90
25436;DHT22;13363;52.772;-3.890;2022-09-21T02:42:44;10.80;99.90
25436;DHT22;13363;52.772;-3.890;2022-09-21T02:45:30;10.90;99.90
25436;DHT22;13363;52.772;-3.890;2022-09-21T02:48:06;10.90;99.90
25436;DHT22;13363;52.772;-3.890;2022-09-21T02:50:57;11.00;99.90
25436;DHT22;13363;52.772;-3.890;2022-09-21T02:53:32;10.90;99.90
25436;DHT22;13363;52.772;-3.890;2022-09-21T02:55:59;10.90;99.90
25436;DHT22;13363;52.772;-3.890;2022-09-21T02:58:33;10.90;99.90
25436;DHT22;13363;52.772;-3.890;2022-09-21T03:01:00;11.00;99.90
25436;DHT22;13363;52.772;-3.890;2022-09-21T03:03:26;11.00;99.90
25436;DHT22;13363;52.772;-3.890;2022-09-21T03:05:53;10.90;99.90
25436;DHT22;13363;52.772;-3.890;2022-09-21T03:08:20;10.90;99.90
25436;DHT22;13363;52.772;-3.890;2022-09-21T03:10:46;10.90;99.90
25436;DHT22;13363;52.772;-3.890;2022-09-21T03:13:15;11.00;99.90
25436;DHT22;13363;52.772;-3.890;2022-09-21T03:15:42;11.00;99.90
25436;DHT22;13363;52.772;-3.890;2022-09-21T03:18:11;11.00;99.90
25436;DHT22;13363;52.772;-3.890;2022-09-21T03:20:45;11.00;99.90
25436;DHT22;13363;52.772;-3.890;2022-09-21T03:23:12;11.00;99.90
25436;DHT22;13363;52.772;-3.890;2022-09-21T03:25:38;10.80;99.90
25436;DHT22;13363;52.772;-3.890;2022-09-21T03:28:03;10.80;99.90
25436;DHT22;13363;52.772;-3.890;2022-09-21T03:30:29;10.80;99.90
25436;DHT22;13363;52.772;-3.890;2022-09-21T03:32:56;10.70;99.90
25436;DHT22;13363;52.772;-3.890;2022-09-21T03:35:23;10.80;99.90
25436;DHT22;13363;52.772;-3.890;2022-09-21T03:37:51;10.70;99.90
25436;DHT22;13363;52.772;-3.890;2022-09-21T03:40:17;10.50;99.90
25436;DHT22;13363;52.772;-3.890;2022-09-21T03:42:44;10.50;99.90
25436;DHT22;13363;52.772;-3.890;2022-09-21T03:45:11;10.40;99.90
25436;DHT22;13363;52.772;-3.890;2022-09-21T03:47:38;10.40;99.90
25436;DHT22;13363;52.772;-3.890;2022-09-21T03:50:06;10.40;99.90
25436;DHT22;13363;52.772;-3.890;2022-09-21T03:52:32;10.50;99.90
25436;DHT22;13363;52.772;-3.890;2022-09-21T03:54:58;10.70;99.90
25436;DHT22;13363;52.772;-3.890;2022-09-21T03:57:24;10.60;99.90
25436;DHT22;13363;52.772;-3.890;2022-09-21T03:59:50;10.50;99.90
25436;DHT22;13363;52.772;-3.890;2022-09-21T04:02:18;10.50;99.90
25436;DHT22;13363;52.772;-3.890;2022-09-21T04:04:44;10.60;99.90
25436;DHT22;13363;52.772;-3.890;2022-09-21T04:07:10;10.70;99.90
25436;DHT22;13363;52.772;-3.890;2022-09-21T04:09:35;10.70;99.90
25436;DHT22;13363;52.772;-3.890;2022-09-21T04:12:01;10.80;99.90
25436;DHT22;13363;52.772;-3.890;2022-09-21T04:14:27;10.80;99.90
25436;DHT22;13363;52.772;-3.890;2022-09-21T04:16:54;11.00;99.90
25436;DHT22;13363;52.772;-3.890;2022-09-21T04:19:20;11.00;99.90
25436;DHT22;13363;52.772;-3.890;2022-09-21T04:21:47;11.00;99.90
25436;DHT22;13363;52.772;-3.890;2022-09-21T04:24:16;11.00;99.90
25436;DHT22;13363;52.772;-3.890;2022-09-21T04:26:44;11.00;99.90
25436;DHT22;13363;52.772;-3.890;2022-09-21T04:29:14;11.00;99.90
25436;DHT22;13363;52.772;-3.890;2022-09-21T04:31:41;11.00;99.90
25436;DHT22;13363;52.772;-3.890;2022-09-21T04:34:08;11.00;99.90
25436;DHT22;13363;52.772;-3.890;2022-09-21T04:36:37;11.10;99.90
25436;DHT22;13363;52.772;-3.890;2022-09-21T04:39:03;11.00;99.90
25436;DHT22;13363;52.772;-3.890;2022-09-21T04:41:29;11.20;99.90
25436;DHT22;13363;52.772;-3.890;2022-09-21T04:43:55;11.20;99.90
25436;DHT22;13363;52.772;-3.890;2022-09-21T04:46:21;11.20;99.90
25436;DHT22;13363;52.772;-3.890;2022-09-21T04:48:48;11.20;99.90
25436;DHT22;13363;52.772;-3.890;2022-09-21T04:51:15;11.20;99.90
25436;DHT22;13363;52.772;-3.890;2022-09-21T04:53:43;11.20;99.90
25436;DHT22;13363;52.772;-3.890;2022-09-21T04:56:12;11.20;99.90
25436;DHT22;13363;52.772;-3.890;2022-09-21T04:58:38;11.20;99.90
25436;DHT22;13363;52.772;-3.890;2022-09-21T05:01:04;11.20;99.90
25436;DHT22;13363;52.772;-3.890;2022-09-21T05:03:31;11.20;99.90
25436;DHT22;13363;52.772;-3.890;2022-09-21T05:05:58;11.20;99.90
25436;DHT22;13363;52.772;-3.890;2022-09-21T05:08:25;11.20;99.90
25436;DHT22;13363;52.772;-3.890;2022-09-21T05:11:14;11.20;99.90
25436;DHT22;13363;52.772;-3.890;2022-09-21T05:13:41;11.10;99.90
25436;DHT22;13363;52.772;-3.890;2022-09-21T05:16:07;11.10;99.90
25436;DHT22;13363;52.772;-3.890;2022-09-21T05:18:34;11.20;99.90
25436;DHT22;13363;52.772;-3.890;2022-09-21T05:21:01;11.10;99.90
25436;DHT22;13363;52.772;-3.890;2022-09-21T05:23:28;11.20;99.90
25436;DHT22;13363;52.772;-3.890;2022-09-21T05:25:56;11.30;99.90
25436;DHT22;13363;52.772;-3.890;2022-09-21T05:28:22;11.30;99.90
25436;DHT22;13363;52.772;-3.890;2022-09-21T05:33:39;11.20;99.90
25436;DHT22;13363;52.772;-3.890;2022-09-21T05:36:13;11.30;99.90
25436;DHT22;13363;52.772;-3.890;2022-09-21T05:38:42;11.40;99.90
25436;DHT22;13363;52.772;-3.890;2022-09-21T05:41:08;11.40;99.90
25436;DHT22;13363;52.772;-3.890;2022-09-21T05:43:35;11.30;99.90
25436;DHT22;13363;52.772;-3.890;2022-09-21T05:49:22;11.30;99.90
25436;DHT22;13363;52.772;-3.890;2022-09-21T05:58:11;11.30;99.90
25436;DHT22;13363;52.772;-3.890;2022-09-21T06:03:29;11.30;99.90
25436;DHT22;13363;52.772;-3.890;2022-09-21T06:05:56;11.40;99.90
25436;DHT22;13363;52.772;-3.890;2022-09-21T06:08:24;11.40;99.90
25436;DHT22;13363;52.772;-3.890;2022-09-21T06:10:50;11.40;99.90
25436;DHT22;13363;52.772;-3.890;2022-09-21T06:13:17;11.30;99.90
25436;DHT22;13363;52.772;-3.890;2022-09-21T06:15:43;11.20;99.90
25436;DHT22;13363;52.772;-3.890;2022-09-21T06:18:09;11.20;99.90
25436;DHT22;13363;52.772;-3.890;2022-09-21T06:20:35;11.20;99.90
25436;DHT22;13363;52.772;-3.890;2022-09-21T06:25:28;11.30;99.90
25436;DHT22;13363;52.772;-3.890;2022-09-21T06:27:54;11.30;99.90
25436;DHT22;13363;52.772;-3.890;2022-09-21T06:30:20;11.30;99.90
25436;DHT22;13363;52.772;-3.890;2022-09-21T06:32:45;11.30;99.90
25436;DHT22;13363;52.772;-3.890;2022-09-21T06:35:11;11.30;99.90
25436;DHT22;13363;52.772;-3.890;2022-09-21T06:37:37;11.40;99.90
25436;DHT22;13363;52.772;-3.890;2022-09-21T06:40:05;11.40;99.90
25436;DHT22;13363;52.772;-3.890;2022-09-21T06:42:31;11.50;99.90
25436;DHT22;13363;52.772;-3.890;2022-09-21T06:44:57;11.50;99.90
25436;DHT22;13363;52.772;-3.890;2022-09-21T06:47:23;11.50;99.90
25436;DHT22;13363;52.772;-3.890;2022-09-21T06:49:48;11.70;99.90
25436;DHT22;13363;52.772;-3.890;2022-09-21T06:52:14;11.80;99.90
25436;DHT22;13363;52.772;-3.890;2022-09-21T06:54:40;11.80;99.90
25436;DHT22;13363;52.772;-3.890;2022-09-21T06:57:07;11.90;99.90
25436;DHT22;13363;52.772;-3.890;2022-09-21T06:59:32;11.90;99.90
25436;DHT22;13363;52.772;-3.890;2022-09-21T07:01:58;11.90;99.90
25436;DHT22;13363;52.772;-3.890;2022-09-21T07:04:24;11.90;99.90
25436;DHT22;13363;52.772;-3.890;2022-09-21T07:06:50;12.10;99.90
25436;DHT22;13363;52.772;-3.890;2022-09-21T07:09:16;12.10;99.90
25436;DHT22;13363;52.772;-3.890;2022-09-21T07:11:42;12.10;99.90
25436;DHT22;13363;52.772;-3.890;2022-09-21T07:14:08;12.20;99.90
25436;DHT22;13363;52.772;-3.890;2022-09-21T07:16:34;12.30;99.90
25436;DHT22;13363;52.772;-3.890;2022-09-21T07:19:00;12.40;99.90
25436;DHT22;13363;52.772;-3.890;2022-09-21T07:21:26;12.60;99.90
25436;DHT22;13363;52.772;-3.890;2022-09-21T07:23:52;12.70;99.90
25436;DHT22;13363;52.772;-3.890;2022-09-21T07:26:18;12.90;99.90
25436;DHT22;13363;52.772;-3.890;2022-09-21T07:28:44;12.90;99.90
25436;DHT22;13363;52.772;-3.890;2022-09-21T07:31:14;13.10;99.90
25436;DHT22;13363;52.772;-3.890;2022-09-21T07:33:42;13.20;99.90
25436;DHT22;13363;52.772;-3.890;2022-09-21T07:36:09;13.20;99.90
25436;DHT22;13363;52.772;-3.890;2022-09-21T07:38:40;13.30;99.90
25436;DHT22;13363;52.772;-3.890;2022-09-21T07:41:07;13.30;99.90
25436;DHT22;13363;52.772;-3.890;2022-09-21T07:43:33;13.40;99.90
25436;DHT22;13363;52.772;-3.890;2022-09-21T07:45:59;13.50;99.90
25436;DHT22;13363;52.772;-3.890;2022-09-21T07:48:27;13.60;99.90
25436;DHT22;13363;52.772;-3.890;2022-09-21T07:50:54;13.90;99.90
25436;DHT22;13363;52.772;-3.890;2022-09-21T07:53:22;14.30;99.90
25436;DHT22;13363;52.772;-3.890;2022-09-21T07:55:47;14.80;99.90
25436;DHT22;13363;52.772;-3.890;2022-09-21T07:58:13;15.10;99.90
25436;DHT22;13363;52.772;-3.890;2022-09-21T08:00:57;15.30;99.90
25436;DHT22;13363;52.772;-3.890;2022-09-21T08:03:24;15.40;99.90
25436;DHT22;13363;52.772;-3.890;2022-09-21T08:05:49;15.50;99.90
25436;DHT22;13363;52.772;-3.890;2022-09-21T08:08:16;15.60;99.90
25436;DHT22;13363;52.772;-3.890;2022-09-21T08:10:42;15.80;99.90
25436;DHT22;13363;52.772;-3.890;2022-09-21T08:13:08;16.00;99.90
25436;DHT22;13363;52.772;-3.890;2022-09-21T08:15:34;16.20;99.90
25436;DHT22;13363;52.772;-3.890;2022-09-21T08:18:00;16.50;99.90
25436;DHT22;13363;52.772;-3.890;2022-09-21T08:20:30;17.10;99.90
25436;DHT22;13363;52.772;-3.890;2022-09-21T08:22:55;17.40;99.90
25436;DHT22;13363;52.772;-3.890;2022-09-21T08:25:22;17.60;99.90
25436;DHT22;13363;52.772;-3.890;2022-09-21T08:27:48;18.20;99.90
25436;DHT22;13363;52.772;-3.890;2022-09-21T08:30:14;18.80;99.90
25436;DHT22;13363;52.772;-3.890;2022-09-21T08:32:42;19.10;99.90
25436;DHT22;13363;52.772;-3.890;2022-09-21T08:35:13;19.10;99.90
25436;DHT22;13363;52.772;-3.890;2022-09-21T08:37:43;19.20;99.90
25436;DHT22;13363;52.772;-3.890;2022-09-21T08:40:09;19.90;99.90
25436;DHT22;13363;52.772;-3.890;2022-09-21T08:42:44;21.40;99.90
25436;DHT22;13363;52.772;-3.890;2022-09-21T08:45:16;22.70;99.90
25436;DHT22;13363;52.772;-3.890;2022-09-21T08:47:55;22.90;99.90
25436;DHT22;13363;52.772;-3.890;2022-09-21T08:52:51;22.60;99.90
25436;DHT22;13363;52.772;-3.890;2022-09-21T08:55:19;23.40;99.90
25436;DHT22;13363;52.772;-3.890;2022-09-21T08:57:45;23.20;99.90
25436;DHT22;13363;52.772;-3.890;2022-09-21T09:00:18;22.50;99.90
25436;DHT22;13363;52.772;-3.890;2022-09-21T09:03:14;22.40;99.90
25436;DHT22;13363;52.772;-3.890;2022-09-21T09:06:05;23.20;99.90
25436;DHT22;13363;52.772;-3.890;2022-09-21T09:14:22;23.20;99.90
25436;DHT22;13363;52.772;-3.890;2022-09-21T09:22:08;21.40;99.90
25436;DHT22;13363;52.772;-3.890;2022-09-21T09:24:48;21.30;99.90
25436;DHT22;13363;52.772;-3.890;2022-09-21T09:27:26;20.90;99.90
25436;DHT22;13363;52.772;-3.890;2022-09-21T09:32:46;20.20;99.90
25436;DHT22;13363;52.772;-3.890;2022-09-21T09:35:37;20.00;99.90
25436;DHT22;13363;52.772;-3.890;2022-09-21T09:38:22;19.70;99.90
25436;DHT22;13363;52.772;-3.890;2022-09-21T09:43:57;19.30;99.90
25436;DHT22;13363;52.772;-3.890;2022-09-21T09:46:34;19.10;99.90
25436;DHT22;13363;52.772;-3.890;2022-09-21T09:49:23;19.00;99.90
25436;DHT22;13363;52.772;-3.890;2022-09-21T09:51:53;18.90;99.90
25436;DHT22;13363;52.772;-3.890;2022-09-21T09:54:21;18.50;99.90
25436;DHT22;13363;52.772;-3.890;2022-09-21T09:56:48;18.40;99.90
25436;DHT22;13363;52.772;-3.890;2022-09-21T09:59:45;18.30;99.90
25436;DHT22;13363;52.772;-3.890;2022-09-21T10:02:24;18.30;99.90
25436;DHT22;13363;52.772;-3.890;2022-09-21T10:04:58;18.30;99.90
25436;DHT22;13363;52.772;-3.890;2022-09-21T10:07:45;18.40;99.90
25436;DHT22;13363;52.772;-3.890;2022-09-21T10:10:30;18.40;99.90
25436;DHT22;13363;52.772;-3.890;2022-09-21T10:13:10;18.40;99.90
25436;DHT22;13363;52.772;-3.890;2022-09-21T10:16:00;18.50;99.90
25436;DHT22;13363;52.772;-3.890;2022-09-21T10:18:59;18.50;99.90
25436;DHT22;13363;52.772;-3.890;2022-09-21T10:21:38;18.60;99.90
25436;DHT22;13363;52.772;-3.890;2022-09-21T10:27:15;18.30;99.90
25436;DHT22;13363;52.772;-3.890;2022-09-21T10:29:45;18.20;99.90
25436;DHT22;13363;52.772;-3.890;2022-09-21T10:34:38;18.10;99.90
25436;DHT22;13363;52.772;-3.890;2022-09-21T10:37:28;18.10;99.90
25436;DHT22;13363;52.772;-3.890;2022-09-21T10:39:54;18.00;99.90
25436;DHT22;13363;52.772;-3.890;2022-09-21T10:42:21;18.00;99.90
25436;DHT22;13363;52.772;-3.890;2022-09-21T10:45:15;18.00;99.90
25436;DHT22;13363;52.772;-3.890;2022-09-21T10:47:54;18.10;99.90
25436;DHT22;13363;52.772;-3.890;2022-09-21T10:50:36;18.20;99.90
25436;DHT22;13363;52.772;-3.890;2022-09-21T10:55:40;18.40;99.90
25436;DHT22;13363;52.772;-3.890;2022-09-21T10:58:11;18.50;99.90
25436;DHT22;13363;52.772;-3.890;2022-09-21T11:00:43;18.50;99.90
25436;DHT22;13363;52.772;-3.890;2022-09-21T11:06:40;18.50;99.90
25436;DHT22;13363;52.772;-3.890;2022-09-21T11:11:42;18.50;99.90
25436;DHT22;13363;52.772;-3.890;2022-09-21T11:14:15;18.40;99.90
25436;DHT22;13363;52.772;-3.890;2022-09-21T11:16:53;18.10;99.90
25436;DHT22;13363;52.772;-3.890;2022-09-21T11:20:04;18.20;99.90
25436;DHT22;13363;52.772;-3.890;2022-09-21T11:22:23;18.20;99.90
25436;DHT22;13363;52.772;-3.890;2022-09-21T11:27:39;18.10;99.90
25436;DHT22;13363;52.772;-3.890;2022-09-21T11:30:10;18.20;99.90
25436;DHT22;13363;52.772;-3.890;2022-09-21T11:43:49;18.40;99.90
25436;DHT22;13363;52.772;-3.890;2022-09-21T11:46:47;18.30;99.90
25436;DHT22;13363;52.772;-3.890;2022-09-21T11:55:51;18.30;99.90
25436;DHT22;13363;52.772;-3.890;2022-09-21T12:01:09;18.40;99.90
25436;DHT22;13363;52.772;-3.890;2022-09-21T12:03:43;18.40;99.90
25436;DHT22;13363;52.772;-3.890;2022-09-21T12:06:27;18.30;99.90
25436;DHT22;13363;52.772;-3.890;2022-09-21T12:09:11;18.30;99.90
25436;DHT22;13363;52.772;-3.890;2022-09-21T12:17:36;18.50;99.90
25436;DHT22;13363;52.772;-3.890;2022-09-21T12:23:07;18.80;99.90
25436;DHT22;13363;52.772;-3.890;2022-09-21T12:25:43;19.00;99.90
25436;DHT22;13363;52.772;-3.890;2022-09-21T12:28:25;19.20;99.90
25436;DHT22;13363;52.772;-3.890;2022-09-21T12:30:57;19.10;99.90
25436;DHT22;13363;52.772;-3.890;2022-09-21T12:33:50;18.90;99.90
25436;DHT22;13363;52.772;-3.890;2022-09-21T12:36:27;18.90;99.90
25436;DHT22;13363;52.772;-3.890;2022-09-21T12:41:49;18.70;99.90
25436;DHT22;13363;52.772;-3.890;2022-09-21T12:50:13;18.70;99.90
25436;DHT22;13363;52.772;-3.890;2022-09-21T12:52:40;18.80;99.90
25436;DHT22;13363;52.772;-3.890;2022-09-21T12:55:27;19.10;99.90
25436;DHT22;13363;52.772;-3.890;2022-09-21T12:58:36;19.30;99.90
25436;DHT22;13363;52.772;-3.890;2022-09-21T13:09:20;20.20;99.90
25436;DHT22;13363;52.772;-3.890;2022-09-21T13:12:05;20.50;99.90
25436;DHT22;13363;52.772;-3.890;2022-09-21T13:14:34;20.60;99.90
25436;DHT22;13363;52.772;-3.890;2022-09-21T13:17:03;20.60;99.90
25436;DHT22;13363;52.772;-3.890;2022-09-21T13:19:35;20.50;99.90
25436;DHT22;13363;52.772;-3.890;2022-09-21T13:22:21;20.20;99.90
25436;DHT22;13363;52.772;-3.890;2022-09-21T13:25:20;20.00;99.90
25436;DHT22;13363;52.772;-3.890;2022-09-21T13:30:42;20.10;99.90
25436;DHT22;13363;52.772;-3.890;2022-09-21T13:44:00;20.30;99.90
25436;DHT22;13363;52.772;-3.890;2022-09-21T13:52:05;20.20;99.90
25436;DHT22;13363;52.772;-3.890;2022-09-21T13:54:51;20.70;99.90
25436;DHT22;13363;52.772;-3.890;2022-09-21T14:02:33;20.70;99.90
25436;DHT22;13363;52.772;-3.890;2022-09-21T14:07:41;20.90;99.90
25436;DHT22;13363;52.772;-3.890;2022-09-21T14:10:07;21.00;99.90
25436;DHT22;13363;52.772;-3.890;2022-09-21T14:12:40;20.70;99.90
25436;DHT22;13363;52.772;-3.890;2022-09-21T14:17:44;20.30;99.90
25436;DHT22;13363;52.772;-3.890;2022-09-21T14:20:32;20.30;99.90
25436;DHT22;13363;52.772;-3.890;2022-09-21T14:23:22;20.30;99.90
25436;DHT22;13363;52.772;-3.890;2022-09-21T14:25:53;20.10;99.90
25436;DHT22;13363;52.772;-3.890;2022-09-21T14:28:36;19.90;99.90
25436;DHT22;13363;52.772;-3.890;2022-09-21T14:31:21;19.70;99.90
25436;DHT22;13363;52.772;-3.890;2022-09-21T14:33:52;19.50;99.90
25436;DHT22;13363;52.772;-3.890;2022-09-21T14:36:43;19.60;99.90
25436;DHT22;13363;52.772;-3.890;2022-09-21T14:39:27;19.60;99.90
25436;DHT22;13363;52.772;-3.890;2022-09-21T14:41:59;19.50;99.90
25436;DHT22;13363;52.772;-3.890;2022-09-21T14:44:28;19.00;99.90
25436;DHT22;13363;52.772;-3.890;2022-09-21T14:59:28;18.70;99.90
25436;DHT22;13363;52.772;-3.890;2022-09-21T15:02:00;18.60;99.90
25436;DHT22;13363;52.772;-3.890;2022-09-21T15:07:48;18.60;99.90
25436;DHT22;13363;52.772;-3.890;2022-09-21T15:17:26;18.50;99.90
25436;DHT22;13363;52.772;-3.890;2022-09-21T15:19:59;18.50;99.90
25436;DHT22;13363;52.772;-3.890;2022-09-21T15:22:28;18.40;99.90
25436;DHT22;13363;52.772;-3.890;2022-09-21T15:25:02;18.50;99.90
25436;DHT22;13363;52.772;-3.890;2022-09-21T15:27:29;18.50;99.90
25436;DHT22;13363;52.772;-3.890;2022-09-21T15:29:58;18.70;99.90
25436;DHT22;13363;52.772;-3.890;2022-09-21T15:32:40;18.80;99.90
25436;DHT22;13363;52.772;-3.890;2022-09-21T15:35:31;18.90;99.90
25436;DHT22;13363;52.772;-3.890;2022-09-21T15:37:58;19.20;99.90
25436;DHT22;13363;52.772;-3.890;2022-09-21T15:43:02;19.30;99.90
25436;DHT22;13363;52.772;-3.890;2022-09-21T15:48:24;19.30;99.90
25436;DHT22;13363;52.772;-3.890;2022-09-21T15:50:57;19.30;99.90
25436;DHT22;13363;52.772;-3.890;2022-09-21T15:53:28;19.40;99.90
25436;DHT22;13363;52.772;-3.890;2022-09-21T15:55:57;19.30;99.90
25436;DHT22;13363;52.772;-3.890;2022-09-21T15:58:37;19.20;99.90
25436;DHT22;13363;52.772;-3.890;2022-09-21T16:01:18;19.10;99.90
25436;DHT22;13363;52.772;-3.890;2022-09-21T16:03:47;19.00;99.90
25436;DHT22;13363;52.772;-3.890;2022-09-21T16:06:24;18.90;99.90
25436;DHT22;13363;52.772;-3.890;2022-09-21T16:08:51;19.00;99.90
25436;DHT22;13363;52.772;-3.890;2022-09-21T16:14:22;18.90;99.90
25436;DHT22;13363;52.772;-3.890;2022-09-21T16:17:23;18.80;99.90
25436;DHT22;13363;52.772;-3.890;2022-09-21T16:22:39;18.60;99.90
25436;DHT22;13363;52.772;-3.890;2022-09-21T16:28:00;18.50;99.90
25436;DHT22;13363;52.772;-3.890;2022-09-21T16:30:49;18.40;99.90
25436;DHT22;13363;52.772;-3.890;2022-09-21T16:33:40;18.40;99.90
25436;DHT22;13363;52.772;-3.890;2022-09-21T16:38:42;18.30;99.90
25436;DHT22;13363;52.772;-3.890;2022-09-21T16:41:09;18.20;99.90
25436;DHT22;13363;52.772;-3.890;2022-09-21T16:43:38;18.20;99.90
25436;DHT22;13363;52.772;-3.890;2022-09-21T16:46:11;18.20;99.90
25436;DHT22;13363;52.772;-3.890;2022-09-21T16:48:37;18.20;99.90
25436;DHT22;13363;52.772;-3.890;2022-09-21T16:51:13;18.10;99.90
25436;DHT22;13363;52.772;-3.890;2022-09-21T16:53:39;18.10;99.90
25436;DHT22;13363;52.772;-3.890;2022-09-21T16:56:11;18.00;99.90
25436;DHT22;13363;52.772;-3.890;2022-09-21T16:58:38;18.00;99.90
25436;DHT22;13363;52.772;-3.890;2022-09-21T17:01:07;18.00;99.90
25436;DHT22;13363;52.772;-3.890;2022-09-21T17:03:34;18.00;99.90
25436;DHT22;13363;52.772;-3.890;2022-09-21T17:06:00;17.90;99.90
25436;DHT22;13363;52.772;-3.890;2022-09-21T17:08:27;17.90;99.90
25436;DHT22;13363;52.772;-3.890;2022-09-21T17:10:54;18.00;99.90
25436;DHT22;13363;52.772;-3.890;2022-09-21T17:13:21;18.00;99.90
25436;DHT22;13363;52.772;-3.890;2022-09-21T17:15:47;17.90;99.90
25436;DHT22;13363;52.772;-3.890;2022-09-21T17:18:13;17.90;99.90
25436;DHT22;13363;52.772;-3.890;2022-09-21T17:20:42;17.80;99.90
25436;DHT22;13363;52.772;-3.890;2022-09-21T17:23:09;17.80;99.90
25436;DHT22;13363;52.772;-3.890;2022-09-21T17:25:35;17.80;99.90
25436;DHT22;13363;52.772;-3.890;2022-09-21T17:28:05;17.80;99.90
25436;DHT22;13363;52.772;-3.890;2022-09-21T17:30:35;17.80;99.90
25436;DHT22;13363;52.772;-3.890;2022-09-21T17:33:02;17.70;99.90
25436;DHT22;13363;52.772;-3.890;2022-09-21T17:35:36;17.70;99.90
25436;DHT22;13363;52.772;-3.890;2022-09-21T17:38:03;17.60;99.90
25436;DHT22;13363;52.772;-3.890;2022-09-21T17:40:30;17.70;99.90
25436;DHT22;13363;52.772;-3.890;2022-09-21T17:45:43;17.60;99.90
25436;DHT22;13363;52.772;-3.890;2022-09-21T17:48:21;17.50;99.90
25436;DHT22;13363;52.772;-3.890;2022-09-21T17:50:48;17.60;99.90
25436;DHT22;13363;52.772;-3.890;2022-09-21T17:53:14;17.50;99.90
25436;DHT22;13363;52.772;-3.890;2022-09-21T17:58:58;17.50;99.90
25436;DHT22;13363;52.772;-3.890;2022-09-21T18:03:52;17.50;99.90
25436;DHT22;13363;52.772;-3.890;2022-09-21T18:06:18;17.50;99.90
25436;DHT22;13363;52.772;-3.890;2022-09-21T18:08:44;17.50;99.90
25436;DHT22;13363;52.772;-3.890;2022-09-21T18:22:35;17.10;99.90
25436;DHT22;13363;52.772;-3.890;2022-09-21T18:25:15;17.00;99.90
25436;DHT22;13363;52.772;-3.890;2022-09-21T18:27:43;16.80;99.90
25436;DHT22;13363;52.772;-3.890;2022-09-21T18:30:13;16.70;99.90
25436;DHT22;13363;52.772;-3.890;2022-09-21T18:47:24;16.30;99.90
25436;DHT22;13363;52.772;-3.890;2022-09-21T18:54:56;16.20;99.90
25436;DHT22;13363;52.772;-3.890;2022-09-21T18:57:22;16.20;99.90
25436;DHT22;13363;52.772;-3.890;2022-09-21T18:59:49;16.00;99.90
25436;DHT22;13363;52.772;-3.890;2022-09-21T19:02:17;16.00;99.90
25436;DHT22;13363;52.772;-3.890;2022-09-21T19:04:45;15.90;99.90
25436;DHT22;13363;52.772;-3.890;2022-09-21T19:13:03;15.70;99.90
25436;DHT22;13363;52.772;-3.890;2022-09-21T19:21:44;15.50;99.90
25436;DHT22;13363;52.772;-3.890;2022-09-21T19:30:07;15.30;99.90
25436;DHT22;13363;52.772;-3.890;2022-09-21T19:32:49;15.20;99.90
25436;DHT22;13363;52.772;-3.890;2022-09-21T19:37:49;15.10;99.90
25436;DHT22;13363;52.772;-3.890;2022-09-21T19:40:22;15.00;99.90
25436;DHT22;13363;52.772;-3.890;2022-09-21T19:43:29;15.00;99.90
25436;DHT22;13363;52.772;-3.890;2022-09-21T19:49:18;14.90;99.90
25436;DHT22;13363;52.772;-3.890;2022-09-21T19:51:54;14.90;99.90
25436;DHT22;13363;52.772;-3.890;2022-09-21T19:54:23;14.90;99.90
25436;DHT22;13363;52.772;-3.890;2022-09-21T19:57:16;14.90;99.90
25436;DHT22;13363;52.772;-3.890;2022-09-21T20:00:07;14.90;99.90
25436;DHT22;13363;52.772;-3.890;2022-09-21T20:02:40;14.90;99.90
25436;DHT22;13363;52.772;-3.890;2022-09-21T20:05:22;14.80;99.90
25436;DHT22;13363;52.772;-3.890;2022-09-21T20:21:41;14.70;99.90